sensor_id;sensor_type;location;lat;lon;timestamp;P1;durP1;ratioP1;P2;durP2;ratioP2
47413;SDS011;33163;0.000;0.000;2023-04-19T00:00:59;4.38;;;1.90;;
47413;SDS011;33163;0.000;0.000;2023-04-19T00:03:28;3.30;;;2.25;;
47413;SDS011;33163;0.000;0.000;2023-04-19T00:05:55;6.63;;;2.42;;
47413;SDS011;33163;0.000;0.000;2023-04-19T00:08:23;4.22;;;2.65;;
47413;SDS011;33163;0.000;0.000;2023-04-19T00:10:50;3.13;;;2.13;;
47413;SDS011;33163;0.000;0.000;2023-04-19T00:13:16;6.25;;;2.50;;
47413;SDS011;33163;0.000;0.000;2023-04-19T00:15:43;3.00;;;2.20;;
47413;SDS011;33163;0.000;0.000;2023-04-19T00:18:11;2.38;;;2.15;;
47413;SDS011;33163;0.000;0.000;2023-04-19T00:20:39;2.75;;;2.22;;
47413;SDS011;33163;0.000;0.000;2023-04-19T00:23:05;3.15;;;2.50;;
47413;SDS011;33163;0.000;0.000;2023-04-19T00:25:32;2.63;;;2.38;;
47413;SDS011;33163;0.000;0.000;2023-04-19T00:27:59;2.90;;;1.90;;
47413;SDS011;33163;0.000;0.000;2023-04-19T00:30:26;2.67;;;2.15;;
47413;SDS011;33163;0.000;0.000;2023-04-19T00:32:53;3.25;;;2.25;;
47413;SDS011;33163;0.000;0.000;2023-04-19T00:35:19;2.70;;;2.10;;
47413;SDS011;33163;0.000;0.000;2023-04-19T00:37:47;3.85;;;2.47;;
47413;SDS011;33163;0.000;0.000;2023-04-19T00:40:14;2.88;;;2.05;;
47413;SDS011;33163;0.000;0.000;2023-04-19T00:42:41;3.47;;;2.20;;
47413;SDS011;33163;0.000;0.000;2023-04-19T00:45:08;3.20;;;2.08;;
47413;SDS011;33163;0.000;0.000;2023-04-19T00:47:36;3.38;;;2.47;;
47413;SDS011;33163;0.000;0.000;2023-04-19T00:50:03;2.10;;;1.90;;
47413;SDS011;33163;0.000;0.000;2023-04-19T00:52:31;2.72;;;2.33;;
47413;SDS011;33163;0.000;0.000;2023-04-19T00:54:59;2.80;;;2.20;;
47413;SDS011;33163;0.000;0.000;2023-04-19T00:57:27;2.53;;;1.90;;
47413;SDS011;33163;0.000;0.000;2023-04-19T00:59:54;2.83;;;2.00;;
47413;SDS011;33163;0.000;0.000;2023-04-19T01:02:22;3.72;;;2.55;;
47413;SDS011;33163;0.000;0.000;2023-04-19T01:04:49;4.07;;;2.38;;
47413;SDS011;33163;0.000;0.000;2023-04-19T01:07:15;2.58;;;1.95;;
47413;SDS011;33163;0.000;0.000;2023-04-19T01:09:44;3.65;;;1.95;;
47413;SDS011;33163;0.000;0.000;2023-04-19T01:12:13;3.58;;;2.10;;
47413;SDS011;33163;0.000;0.000;2023-04-19T01:14:39;3.03;;;2.20;;
47413;SDS011;33163;0.000;0.000;2023-04-19T01:17:06;3.42;;;1.92;;
47413;SDS011;33163;0.000;0.000;2023-04-19T01:19:33;3.63;;;2.30;;
47413;SDS011;33163;0.000;0.000;2023-04-19T01:22:01;2.28;;;2.08;;
47413;SDS011;33163;0.000;0.000;2023-04-19T01:24:29;2.50;;;2.30;;
47413;SDS011;33163;0.000;0.000;2023-04-19T01:26:56;3.58;;;2.45;;
47413;SDS011;33163;0.000;0.000;2023-04-19T01:29:23;2.80;;;2.15;;
47413;SDS011;33163;0.000;0.000;2023-04-19T01:31:50;2.28;;;2.08;;
47413;SDS011;33163;0.000;0.000;2023-04-19T01:34:17;3.45;;;2.10;;
47413;SDS011;33163;0.000;0.000;2023-04-19T01:36:44;3.92;;;2.30;;
47413;SDS011;33163;0.000;0.000;2023-04-19T01:39:11;2.75;;;2.55;;
47413;SDS011;33163;0.000;0.000;2023-04-19T01:41:39;3.13;;;2.13;;
47413;SDS011;33163;0.000;0.000;2023-04-19T01:44:06;2.47;;;2.17;;
47413;SDS011;33163;0.000;0.000;2023-04-19T01:46:32;3.85;;;2.55;;
47413;SDS011;33163;0.000;0.000;2023-04-19T01:49:00;3.92;;;2.05;;
47413;SDS011;33163;0.000;0.000;2023-04-19T01:51:27;2.45;;;2.25;;
47413;SDS011;33163;0.000;0.000;2023-04-19T01:53:54;2.30;;;1.95;;
47413;SDS011;33163;0.000;0.000;2023-04-19T01:56:22;4.55;;;2.42;;
47413;SDS011;33163;0.000;0.000;2023-04-19T01:58:50;2.40;;;2.00;;
47413;SDS011;33163;0.000;0.000;2023-04-19T02:01:17;3.00;;;2.22;;
47413;SDS011;33163;0.000;0.000;2023-04-19T02:03:43;3.70;;;2.00;;
47413;SDS011;33163;0.000;0.000;2023-04-19T02:06:10;3.35;;;2.05;;
47413;SDS011;33163;0.000;0.000;2023-04-19T02:08:37;2.42;;;2.22;;
47413;SDS011;33163;0.000;0.000;2023-04-19T02:11:05;1.92;;;1.75;;
47413;SDS011;33163;0.000;0.000;2023-04-19T02:13:33;3.03;;;2.20;;
47413;SDS011;33163;0.000;0.000;2023-04-19T02:16:01;2.50;;;2.10;;
47413;SDS011;33163;0.000;0.000;2023-04-19T02:18:28;3.58;;;2.45;;
47413;SDS011;33163;0.000;0.000;2023-04-19T02:20:54;3.10;;;2.40;;
47413;SDS011;33163;0.000;0.000;2023-04-19T02:23:21;4.35;;;2.55;;
47413;SDS011;33163;0.000;0.000;2023-04-19T02:25:48;2.35;;;1.88;;
47413;SDS011;33163;0.000;0.000;2023-04-19T02:28:15;3.90;;;2.38;;
47413;SDS011;33163;0.000;0.000;2023-04-19T02:30:42;4.60;;;2.10;;
47413;SDS011;33163;0.000;0.000;2023-04-19T02:33:11;2.72;;;2.38;;
47413;SDS011;33163;0.000;0.000;2023-04-19T02:35:37;3.75;;;2.33;;
47413;SDS011;33163;0.000;0.000;2023-04-19T02:38:04;2.83;;;2.22;;
47413;SDS011;33163;0.000;0.000;2023-04-19T02:40:31;2.53;;;2.15;;
47413;SDS011;33163;0.000;0.000;2023-04-19T02:42:58;2.60;;;2.38;;
47413;SDS011;33163;0.000;0.000;2023-04-19T02:45:24;2.67;;;2.17;;
47413;SDS011;33163;0.000;0.000;2023-04-19T02:47:51;2.47;;;2.03;;
47413;SDS011;33163;0.000;0.000;2023-04-19T02:50:19;2.72;;;2.25;;
47413;SDS011;33163;0.000;0.000;2023-04-19T02:52:46;2.88;;;2.42;;
47413;SDS011;33163;0.000;0.000;2023-04-19T02:55:13;3.00;;;2.40;;
47413;SDS011;33163;0.000;0.000;2023-04-19T02:57:40;3.17;;;2.70;;
47413;SDS011;33163;0.000;0.000;2023-04-19T03:00:07;2.33;;;2.13;;
47413;SDS011;33163;0.000;0.000;2023-04-19T03:02:35;3.83;;;2.90;;
47413;SDS011;33163;0.000;0.000;2023-04-19T03:05:01;3.75;;;2.85;;
47413;SDS011;33163;0.000;0.000;2023-04-19T03:07:30;4.63;;;2.50;;
47413;SDS011;33163;0.000;0.000;2023-04-19T03:09:57;2.92;;;2.17;;
47413;SDS011;33163;0.000;0.000;2023-04-19T03:12:23;3.78;;;2.67;;
47413;SDS011;33163;0.000;0.000;2023-04-19T03:14:50;3.80;;;2.50;;
47413;SDS011;33163;0.000;0.000;2023-04-19T03:17:17;3.80;;;2.38;;
47413;SDS011;33163;0.000;0.000;2023-04-19T03:19:44;2.35;;;2.13;;
47413;SDS011;33163;0.000;0.000;2023-04-19T03:22:10;3.05;;;2.75;;
47413;SDS011;33163;0.000;0.000;2023-04-19T03:24:38;3.17;;;2.40;;
47413;SDS011;33163;0.000;0.000;2023-04-19T03:27:05;3.95;;;2.85;;
47413;SDS011;33163;0.000;0.000;2023-04-19T03:29:32;4.43;;;2.30;;
47413;SDS011;33163;0.000;0.000;2023-04-19T03:31:59;3.17;;;2.22;;
47413;SDS011;33163;0.000;0.000;2023-04-19T03:34:25;3.13;;;2.30;;
47413;SDS011;33163;0.000;0.000;2023-04-19T03:36:52;3.88;;;2.30;;
47413;SDS011;33163;0.000;0.000;2023-04-19T03:39:20;3.50;;;2.17;;
47413;SDS011;33163;0.000;0.000;2023-04-19T03:41:48;3.13;;;2.60;;
47413;SDS011;33163;0.000;0.000;2023-04-19T03:44:15;4.65;;;2.40;;
47413;SDS011;33163;0.000;0.000;2023-04-19T03:46:42;3.13;;;2.40;;
47413;SDS011;33163;0.000;0.000;2023-04-19T03:49:10;4.55;;;2.38;;
47413;SDS011;33163;0.000;0.000;2023-04-19T03:51:37;5.97;;;2.40;;
47413;SDS011;33163;0.000;0.000;2023-04-19T03:54:03;2.88;;;2.55;;
47413;SDS011;33163;0.000;0.000;2023-04-19T03:56:30;2.80;;;2.30;;
47413;SDS011;33163;0.000;0.000;2023-04-19T03:58:58;3.00;;;2.40;;
47413;SDS011;33163;0.000;0.000;2023-04-19T04:01:25;4.47;;;2.72;;
47413;SDS011;33163;0.000;0.000;2023-04-19T04:03:52;2.42;;;2.22;;
47413;SDS011;33163;0.000;0.000;2023-04-19T04:06:19;4.22;;;2.30;;
47413;SDS011;33163;0.000;0.000;2023-04-19T04:08:46;3.80;;;2.50;;
47413;SDS011;33163;0.000;0.000;2023-04-19T04:11:13;5.40;;;2.92;;
47413;SDS011;33163;0.000;0.000;2023-04-19T04:13:39;5.13;;;2.53;;
47413;SDS011;33163;0.000;0.000;2023-04-19T04:16:08;3.55;;;2.05;;
47413;SDS011;33163;0.000;0.000;2023-04-19T04:18:35;4.78;;;2.38;;
47413;SDS011;33163;0.000;0.000;2023-04-19T04:21:02;2.38;;;2.15;;
47413;SDS011;33163;0.000;0.000;2023-04-19T04:23:29;3.45;;;2.45;;
47413;SDS011;33163;0.000;0.000;2023-04-19T04:25:56;3.00;;;2.45;;
47413;SDS011;33163;0.000;0.000;2023-04-19T04:28:24;4.07;;;3.22;;
47413;SDS011;33163;0.000;0.000;2023-04-19T04:30:51;3.83;;;2.50;;
47413;SDS011;33163;0.000;0.000;2023-04-19T04:33:22;2.53;;;2.08;;
47413;SDS011;33163;0.000;0.000;2023-04-19T04:35:49;2.47;;;2.28;;
47413;SDS011;33163;0.000;0.000;2023-04-19T04:38:17;2.45;;;2.08;;
47413;SDS011;33163;0.000;0.000;2023-04-19T04:40:47;3.92;;;2.55;;
47413;SDS011;33163;0.000;0.000;2023-04-19T04:43:15;3.15;;;2.53;;
47413;SDS011;33163;0.000;0.000;2023-04-19T04:45:42;3.53;;;2.83;;
47413;SDS011;33163;0.000;0.000;2023-04-19T04:48:09;4.97;;;2.83;;
47413;SDS011;33163;0.000;0.000;2023-04-19T04:50:37;3.30;;;2.63;;
47413;SDS011;33163;0.000;0.000;2023-04-19T04:53:04;3.30;;;2.63;;
47413;SDS011;33163;0.000;0.000;2023-04-19T04:55:32;4.32;;;2.88;;
47413;SDS011;33163;0.000;0.000;2023-04-19T04:57:59;4.03;;;2.55;;
47413;SDS011;33163;0.000;0.000;2023-04-19T05:00:26;2.70;;;2.30;;
47413;SDS011;33163;0.000;0.000;2023-04-19T05:02:52;4.28;;;2.53;;
47413;SDS011;33163;0.000;0.000;2023-04-19T05:05:19;3.53;;;2.13;;
47413;SDS011;33163;0.000;0.000;2023-04-19T05:07:47;2.90;;;2.60;;
47413;SDS011;33163;0.000;0.000;2023-04-19T05:10:14;2.85;;;2.53;;
47413;SDS011;33163;0.000;0.000;2023-04-19T05:12:41;3.88;;;2.45;;
47413;SDS011;33163;0.000;0.000;2023-04-19T05:15:08;3.25;;;2.65;;
47413;SDS011;33163;0.000;0.000;2023-04-19T05:17:36;3.95;;;2.65;;
47413;SDS011;33163;0.000;0.000;2023-04-19T05:20:03;4.10;;;2.63;;
47413;SDS011;33163;0.000;0.000;2023-04-19T05:22:30;3.45;;;2.40;;
47413;SDS011;33163;0.000;0.000;2023-04-19T05:24:58;3.05;;;2.65;;
47413;SDS011;33163;0.000;0.000;2023-04-19T05:27:26;2.60;;;2.40;;
47413;SDS011;33163;0.000;0.000;2023-04-19T05:29:52;3.00;;;2.22;;
47413;SDS011;33163;0.000;0.000;2023-04-19T05:32:19;2.40;;;2.20;;
47413;SDS011;33163;0.000;0.000;2023-04-19T05:34:46;3.20;;;2.25;;
47413;SDS011;33163;0.000;0.000;2023-04-19T05:37:13;3.25;;;2.53;;
47413;SDS011;33163;0.000;0.000;2023-04-19T05:39:40;2.22;;;2.00;;
47413;SDS011;33163;0.000;0.000;2023-04-19T05:42:08;6.20;;;2.97;;
47413;SDS011;33163;0.000;0.000;2023-04-19T05:44:35;2.78;;;2.38;;
47413;SDS011;33163;0.000;0.000;2023-04-19T05:47:01;3.35;;;2.53;;
47413;SDS011;33163;0.000;0.000;2023-04-19T05:49:28;7.15;;;2.47;;
47413;SDS011;33163;0.000;0.000;2023-04-19T05:51:55;4.10;;;2.50;;
47413;SDS011;33163;0.000;0.000;2023-04-19T05:54:21;3.47;;;2.63;;
47413;SDS011;33163;0.000;0.000;2023-04-19T05:56:48;6.32;;;2.80;;
47413;SDS011;33163;0.000;0.000;2023-04-19T05:59:16;3.40;;;2.28;;
47413;SDS011;33163;0.000;0.000;2023-04-19T06:01:43;3.10;;;2.10;;
47413;SDS011;33163;0.000;0.000;2023-04-19T06:04:10;4.68;;;2.47;;
47413;SDS011;33163;0.000;0.000;2023-04-19T06:06:36;9.32;;;3.10;;
47413;SDS011;33163;0.000;0.000;2023-04-19T06:09:03;5.85;;;2.40;;
47413;SDS011;33163;0.000;0.000;2023-04-19T06:11:31;4.78;;;2.50;;
47413;SDS011;33163;0.000;0.000;2023-04-19T06:13:58;8.38;;;2.80;;
47413;SDS011;33163;0.000;0.000;2023-04-19T06:16:26;5.30;;;2.67;;
47413;SDS011;33163;0.000;0.000;2023-04-19T06:18:52;8.32;;;2.97;;
47413;SDS011;33163;0.000;0.000;2023-04-19T06:21:19;8.32;;;2.53;;
47413;SDS011;33163;0.000;0.000;2023-04-19T06:23:46;4.70;;;2.85;;
47413;SDS011;33163;0.000;0.000;2023-04-19T06:26:13;4.20;;;2.80;;
47413;SDS011;33163;0.000;0.000;2023-04-19T06:28:39;6.53;;;2.90;;
47413;SDS011;33163;0.000;0.000;2023-04-19T06:31:06;3.60;;;2.45;;
47413;SDS011;33163;0.000;0.000;2023-04-19T06:33:34;4.28;;;2.53;;
47413;SDS011;33163;0.000;0.000;2023-04-19T06:36:01;5.80;;;2.40;;
47413;SDS011;33163;0.000;0.000;2023-04-19T06:38:28;3.50;;;2.53;;
47413;SDS011;33163;0.000;0.000;2023-04-19T06:40:55;6.15;;;3.05;;
47413;SDS011;33163;0.000;0.000;2023-04-19T06:43:21;3.60;;;2.63;;
47413;SDS011;33163;0.000;0.000;2023-04-19T06:45:56;8.05;;;3.17;;
47413;SDS011;33163;0.000;0.000;2023-04-19T06:48:23;6.22;;;2.70;;
47413;SDS011;33163;0.000;0.000;2023-04-19T06:50:51;8.30;;;2.65;;
47413;SDS011;33163;0.000;0.000;2023-04-19T06:53:18;12.27;;;2.80;;
47413;SDS011;33163;0.000;0.000;2023-04-19T06:55:45;2.90;;;2.47;;
47413;SDS011;33163;0.000;0.000;2023-04-19T06:58:12;5.35;;;2.67;;
47413;SDS011;33163;0.000;0.000;2023-04-19T07:00:38;3.10;;;2.80;;
47413;SDS011;33163;0.000;0.000;2023-04-19T07:03:05;6.18;;;3.00;;
47413;SDS011;33163;0.000;0.000;2023-04-19T07:05:32;6.15;;;2.75;;
47413;SDS011;33163;0.000;0.000;2023-04-19T07:08:00;4.00;;;2.67;;
47413;SDS011;33163;0.000;0.000;2023-04-19T07:10:27;4.03;;;2.60;;
47413;SDS011;33163;0.000;0.000;2023-04-19T07:12:53;3.83;;;2.70;;
47413;SDS011;33163;0.000;0.000;2023-04-19T07:15:20;4.07;;;2.70;;
47413;SDS011;33163;0.000;0.000;2023-04-19T07:17:47;4.35;;;2.60;;
47413;SDS011;33163;0.000;0.000;2023-04-19T07:20:14;6.43;;;2.70;;
47413;SDS011;33163;0.000;0.000;2023-04-19T07:22:41;5.82;;;2.67;;
47413;SDS011;33163;0.000;0.000;2023-04-19T07:25:09;3.70;;;2.70;;
47413;SDS011;33163;0.000;0.000;2023-04-19T07:27:36;4.13;;;2.58;;
47413;SDS011;33163;0.000;0.000;2023-04-19T07:30:03;6.72;;;2.75;;
47413;SDS011;33163;0.000;0.000;2023-04-19T07:32:31;4.45;;;2.92;;
47413;SDS011;33163;0.000;0.000;2023-04-19T07:34:58;6.50;;;2.53;;
47413;SDS011;33163;0.000;0.000;2023-04-19T07:37:25;5.47;;;2.80;;
47413;SDS011;33163;0.000;0.000;2023-04-19T07:39:52;3.92;;;2.63;;
47413;SDS011;33163;0.000;0.000;2023-04-19T07:42:20;4.38;;;2.55;;
47413;SDS011;33163;0.000;0.000;2023-04-19T07:44:47;4.88;;;2.83;;
47413;SDS011;33163;0.000;0.000;2023-04-19T07:47:14;3.95;;;2.70;;
47413;SDS011;33163;0.000;0.000;2023-04-19T07:49:41;5.03;;;2.80;;
47413;SDS011;33163;0.000;0.000;2023-04-19T07:52:08;3.17;;;2.20;;
47413;SDS011;33163;0.000;0.000;2023-04-19T07:54:35;4.72;;;2.42;;
47413;SDS011;33163;0.000;0.000;2023-04-19T07:57:03;3.85;;;2.78;;
47413;SDS011;33163;0.000;0.000;2023-04-19T07:59:31;2.92;;;2.60;;
47413;SDS011;33163;0.000;0.000;2023-04-19T08:01:58;2.75;;;2.40;;
47413;SDS011;33163;0.000;0.000;2023-04-19T08:04:25;5.00;;;2.45;;
47413;SDS011;33163;0.000;0.000;2023-04-19T08:06:51;3.55;;;2.45;;
47413;SDS011;33163;0.000;0.000;2023-04-19T08:09:18;4.00;;;2.80;;
47413;SDS011;33163;0.000;0.000;2023-04-19T08:11:45;4.70;;;2.60;;
47413;SDS011;33163;0.000;0.000;2023-04-19T08:14:12;3.50;;;2.40;;
47413;SDS011;33163;0.000;0.000;2023-04-19T08:16:40;3.90;;;2.53;;
47413;SDS011;33163;0.000;0.000;2023-04-19T08:19:07;6.70;;;2.30;;
47413;SDS011;33163;0.000;0.000;2023-04-19T08:21:33;5.10;;;3.15;;
47413;SDS011;33163;0.000;0.000;2023-04-19T08:24:00;3.17;;;2.33;;
47413;SDS011;33163;0.000;0.000;2023-04-19T08:26:27;10.18;;;2.80;;
47413;SDS011;33163;0.000;0.000;2023-04-19T08:28:53;4.50;;;2.75;;
47413;SDS011;33163;0.000;0.000;2023-04-19T08:31:20;3.30;;;2.45;;
47413;SDS011;33163;0.000;0.000;2023-04-19T08:33:48;4.65;;;2.65;;
47413;SDS011;33163;0.000;0.000;2023-04-19T08:36:15;8.05;;;2.75;;
47413;SDS011;33163;0.000;0.000;2023-04-19T08:38:42;2.25;;;1.95;;
47413;SDS011;33163;0.000;0.000;2023-04-19T08:41:10;3.80;;;2.88;;
47413;SDS011;33163;0.000;0.000;2023-04-19T08:43:37;4.03;;;2.90;;
47413;SDS011;33163;0.000;0.000;2023-04-19T08:46:07;5.10;;;2.50;;
47413;SDS011;33163;0.000;0.000;2023-04-19T08:48:36;5.15;;;2.45;;
47413;SDS011;33163;0.000;0.000;2023-04-19T08:51:05;8.00;;;2.90;;
47413;SDS011;33163;0.000;0.000;2023-04-19T08:53:33;2.45;;;2.20;;
47413;SDS011;33163;0.000;0.000;2023-04-19T08:56:00;2.90;;;2.28;;
47413;SDS011;33163;0.000;0.000;2023-04-19T08:58:28;4.72;;;2.58;;
47413;SDS011;33163;0.000;0.000;2023-04-19T09:00:57;3.88;;;2.60;;
47413;SDS011;33163;0.000;0.000;2023-04-19T09:03:24;7.07;;;3.53;;
47413;SDS011;33163;0.000;0.000;2023-04-19T09:05:51;11.10;;;2.55;;
47413;SDS011;33163;0.000;0.000;2023-04-19T09:08:22;5.10;;;3.03;;
47413;SDS011;33163;0.000;0.000;2023-04-19T09:10:54;9.35;;;3.38;;
47413;SDS011;33163;0.000;0.000;2023-04-19T09:13:22;7.30;;;3.53;;
47413;SDS011;33163;0.000;0.000;2023-04-19T09:15:49;4.60;;;3.20;;
47413;SDS011;33163;0.000;0.000;2023-04-19T09:18:17;4.78;;;2.80;;
47413;SDS011;33163;0.000;0.000;2023-04-19T09:20:45;5.60;;;2.88;;
47413;SDS011;33163;0.000;0.000;2023-04-19T09:23:12;10.45;;;2.55;;
47413;SDS011;33163;0.000;0.000;2023-04-19T09:25:50;4.63;;;3.13;;
47413;SDS011;33163;0.000;0.000;2023-04-19T09:28:18;6.85;;;2.72;;
47413;SDS011;33163;0.000;0.000;2023-04-19T09:30:45;3.97;;;2.42;;
47413;SDS011;33163;0.000;0.000;2023-04-19T09:33:13;3.38;;;2.30;;
47413;SDS011;33163;0.000;0.000;2023-04-19T09:35:59;4.78;;;2.60;;
47413;SDS011;33163;0.000;0.000;2023-04-19T09:38:26;4.15;;;1.98;;
47413;SDS011;33163;0.000;0.000;2023-04-19T09:41:05;5.93;;;2.25;;
47413;SDS011;33163;0.000;0.000;2023-04-19T09:43:33;8.98;;;2.42;;
47413;SDS011;33163;0.000;0.000;2023-04-19T09:45:59;7.28;;;2.45;;
47413;SDS011;33163;0.000;0.000;2023-04-19T09:48:26;5.28;;;2.30;;
47413;SDS011;33163;0.000;0.000;2023-04-19T09:50:54;3.97;;;2.30;;
47413;SDS011;33163;0.000;0.000;2023-04-19T09:53:22;5.15;;;2.22;;
47413;SDS011;33163;0.000;0.000;2023-04-19T09:55:50;4.88;;;1.95;;
47413;SDS011;33163;0.000;0.000;2023-04-19T09:58:19;4.68;;;2.22;;
47413;SDS011;33163;0.000;0.000;2023-04-19T10:00:46;5.68;;;2.35;;
47413;SDS011;33163;0.000;0.000;2023-04-19T10:03:16;5.72;;;2.20;;
47413;SDS011;33163;0.000;0.000;2023-04-19T10:05:44;3.25;;;1.98;;
47413;SDS011;33163;0.000;0.000;2023-04-19T10:08:11;4.68;;;2.30;;
47413;SDS011;33163;0.000;0.000;2023-04-19T10:10:39;3.28;;;2.20;;
47413;SDS011;33163;0.000;0.000;2023-04-19T10:13:07;1.85;;;1.60;;
47413;SDS011;33163;0.000;0.000;2023-04-19T10:15:37;3.30;;;2.42;;
47413;SDS011;33163;0.000;0.000;2023-04-19T10:18:06;8.30;;;2.50;;
47413;SDS011;33163;0.000;0.000;2023-04-19T10:20:36;2.95;;;2.28;;
47413;SDS011;33163;0.000;0.000;2023-04-19T10:23:09;2.45;;;1.58;;
47413;SDS011;33163;0.000;0.000;2023-04-19T10:25:36;2.40;;;1.85;;
47413;SDS011;33163;0.000;0.000;2023-04-19T10:28:03;2.50;;;1.90;;
47413;SDS011;33163;0.000;0.000;2023-04-19T10:30:30;2.97;;;1.75;;
47413;SDS011;33163;0.000;0.000;2023-04-19T10:32:59;3.00;;;2.00;;
47413;SDS011;33163;0.000;0.000;2023-04-19T10:35:32;4.53;;;2.30;;
47413;SDS011;33163;0.000;0.000;2023-04-19T10:38:02;4.50;;;2.35;;
47413;SDS011;33163;0.000;0.000;2023-04-19T10:43:20;2.78;;;1.95;;
47413;SDS011;33163;0.000;0.000;2023-04-19T10:45:51;2.80;;;1.80;;
47413;SDS011;33163;0.000;0.000;2023-04-19T10:48:31;4.35;;;2.03;;
47413;SDS011;33163;0.000;0.000;2023-04-19T10:51:00;3.25;;;2.10;;
47413;SDS011;33163;0.000;0.000;2023-04-19T10:53:43;4.93;;;2.15;;
47413;SDS011;33163;0.000;0.000;2023-04-19T10:56:15;5.25;;;2.10;;
47413;SDS011;33163;0.000;0.000;2023-04-19T11:01:39;5.68;;;2.15;;
47413;SDS011;33163;0.000;0.000;2023-04-19T11:04:09;2.50;;;1.58;;
47413;SDS011;33163;0.000;0.000;2023-04-19T11:06:37;7.47;;;2.28;;
47413;SDS011;33163;0.000;0.000;2023-04-19T11:09:21;4.93;;;1.60;;
47413;SDS011;33163;0.000;0.000;2023-04-19T11:11:48;3.28;;;1.90;;
47413;SDS011;33163;0.000;0.000;2023-04-19T11:14:15;10.82;;;2.08;;
47413;SDS011;33163;0.000;0.000;2023-04-19T11:16:43;3.92;;;2.00;;
47413;SDS011;33163;0.000;0.000;2023-04-19T11:19:14;2.95;;;2.03;;
47413;SDS011;33163;0.000;0.000;2023-04-19T11:21:41;4.40;;;1.67;;
47413;SDS011;33163;0.000;0.000;2023-04-19T11:24:10;3.20;;;1.60;;
47413;SDS011;33163;0.000;0.000;2023-04-19T11:26:41;6.15;;;1.67;;
47413;SDS011;33163;0.000;0.000;2023-04-19T11:29:08;3.50;;;1.80;;
47413;SDS011;33163;0.000;0.000;2023-04-19T11:31:35;2.15;;;1.73;;
47413;SDS011;33163;0.000;0.000;2023-04-19T11:34:02;6.95;;;2.55;;
47413;SDS011;33163;0.000;0.000;2023-04-19T11:36:30;8.40;;;2.45;;
47413;SDS011;33163;0.000;0.000;2023-04-19T11:39:00;11.10;;;2.80;;
47413;SDS011;33163;0.000;0.000;2023-04-19T11:41:29;7.95;;;2.28;;
47413;SDS011;33163;0.000;0.000;2023-04-19T11:44:03;9.50;;;2.53;;
47413;SDS011;33163;0.000;0.000;2023-04-19T11:46:30;5.82;;;2.72;;
47413;SDS011;33163;0.000;0.000;2023-04-19T11:48:57;7.70;;;2.25;;
47413;SDS011;33163;0.000;0.000;2023-04-19T11:51:23;6.53;;;2.20;;
47413;SDS011;33163;0.000;0.000;2023-04-19T11:53:53;5.10;;;2.28;;
47413;SDS011;33163;0.000;0.000;2023-04-19T11:56:20;9.35;;;2.42;;
47413;SDS011;33163;0.000;0.000;2023-04-19T11:58:47;4.68;;;2.25;;
47413;SDS011;33163;0.000;0.000;2023-04-19T12:01:16;3.28;;;2.03;;
47413;SDS011;33163;0.000;0.000;2023-04-19T12:03:45;9.85;;;2.15;;
47413;SDS011;33163;0.000;0.000;2023-04-19T12:06:13;2.28;;;1.55;;
47413;SDS011;33163;0.000;0.000;2023-04-19T12:08:42;5.05;;;1.80;;
47413;SDS011;33163;0.000;0.000;2023-04-19T12:11:12;9.73;;;2.50;;
47413;SDS011;33163;0.000;0.000;2023-04-19T12:13:40;5.32;;;1.95;;
47413;SDS011;33163;0.000;0.000;2023-04-19T12:16:08;6.22;;;1.60;;
47413;SDS011;33163;0.000;0.000;2023-04-19T12:18:40;4.00;;;1.65;;
47413;SDS011;33163;0.000;0.000;2023-04-19T12:21:10;5.95;;;1.85;;
47413;SDS011;33163;0.000;0.000;2023-04-19T12:23:37;7.05;;;1.75;;
47413;SDS011;33163;0.000;0.000;2023-04-19T12:26:04;7.45;;;1.65;;
47413;SDS011;33163;0.000;0.000;2023-04-19T12:28:33;7.35;;;2.00;;
47413;SDS011;33163;0.000;0.000;2023-04-19T12:30:59;2.88;;;1.52;;
47413;SDS011;33163;0.000;0.000;2023-04-19T12:33:26;8.98;;;1.70;;
47413;SDS011;33163;0.000;0.000;2023-04-19T12:35:53;4.40;;;1.67;;
47413;SDS011;33163;0.000;0.000;2023-04-19T12:38:19;4.68;;;1.77;;
47413;SDS011;33163;0.000;0.000;2023-04-19T12:40:46;2.90;;;1.30;;
47413;SDS011;33163;0.000;0.000;2023-04-19T12:43:13;4.25;;;1.67;;
47413;SDS011;33163;0.000;0.000;2023-04-19T12:45:41;4.63;;;1.73;;
47413;SDS011;33163;0.000;0.000;2023-04-19T12:48:09;3.58;;;2.17;;
47413;SDS011;33163;0.000;0.000;2023-04-19T12:50:36;2.10;;;1.30;;
47413;SDS011;33163;0.000;0.000;2023-04-19T12:53:02;3.00;;;1.52;;
47413;SDS011;33163;0.000;0.000;2023-04-19T12:55:30;3.63;;;1.77;;
47413;SDS011;33163;0.000;0.000;2023-04-19T12:57:57;3.13;;;1.58;;
47413;SDS011;33163;0.000;0.000;2023-04-19T13:00:24;3.03;;;1.75;;
47413;SDS011;33163;0.000;0.000;2023-04-19T13:02:52;2.47;;;1.33;;
47413;SDS011;33163;0.000;0.000;2023-04-19T13:05:19;4.68;;;1.52;;
47413;SDS011;33163;0.000;0.000;2023-04-19T13:07:45;4.28;;;1.58;;
47413;SDS011;33163;0.000;0.000;2023-04-19T13:10:12;3.67;;;1.55;;
47413;SDS011;33163;0.000;0.000;2023-04-19T13:12:39;2.88;;;1.60;;
47413;SDS011;33163;0.000;0.000;2023-04-19T13:15:07;2.03;;;1.20;;
47413;SDS011;33163;0.000;0.000;2023-04-19T13:17:34;2.83;;;1.70;;
47413;SDS011;33163;0.000;0.000;2023-04-19T13:20:03;5.15;;;1.65;;
47413;SDS011;33163;0.000;0.000;2023-04-19T13:22:31;5.13;;;1.60;;
47413;SDS011;33163;0.000;0.000;2023-04-19T13:24:58;5.35;;;1.58;;
47413;SDS011;33163;0.000;0.000;2023-04-19T13:27:24;3.10;;;1.50;;
47413;SDS011;33163;0.000;0.000;2023-04-19T13:29:52;3.42;;;2.13;;
47413;SDS011;33163;0.000;0.000;2023-04-19T13:32:19;4.97;;;1.30;;
47413;SDS011;33163;0.000;0.000;2023-04-19T13:34:46;3.78;;;1.58;;
47413;SDS011;33163;0.000;0.000;2023-04-19T13:37:14;3.00;;;1.50;;
47413;SDS011;33163;0.000;0.000;2023-04-19T13:39:41;1.67;;;1.20;;
47413;SDS011;33163;0.000;0.000;2023-04-19T13:42:08;5.28;;;1.58;;
47413;SDS011;33163;0.000;0.000;2023-04-19T13:44:35;1.70;;;1.20;;
47413;SDS011;33163;0.000;0.000;2023-04-19T13:47:01;4.53;;;1.27;;
47413;SDS011;33163;0.000;0.000;2023-04-19T13:49:28;2.50;;;1.30;;
47413;SDS011;33163;0.000;0.000;2023-04-19T13:51:55;3.88;;;1.30;;
47413;SDS011;33163;0.000;0.000;2023-04-19T13:54:23;3.22;;;1.40;;
47413;SDS011;33163;0.000;0.000;2023-04-19T13:56:50;2.72;;;1.23;;
47413;SDS011;33163;0.000;0.000;2023-04-19T13:59:17;3.33;;;1.58;;
47413;SDS011;33163;0.000;0.000;2023-04-19T14:01:44;2.40;;;1.52;;
47413;SDS011;33163;0.000;0.000;2023-04-19T14:04:11;2.05;;;1.25;;
47413;SDS011;33163;0.000;0.000;2023-04-19T14:06:38;5.72;;;1.63;;
47413;SDS011;33163;0.000;0.000;2023-04-19T14:09:05;2.97;;;1.40;;
47413;SDS011;33163;0.000;0.000;2023-04-19T14:11:33;2.38;;;1.30;;
47413;SDS011;33163;0.000;0.000;2023-04-19T14:14:01;3.55;;;1.33;;
47413;SDS011;33163;0.000;0.000;2023-04-19T14:16:28;3.13;;;1.55;;
47413;SDS011;33163;0.000;0.000;2023-04-19T14:18:55;4.60;;;1.23;;
47413;SDS011;33163;0.000;0.000;2023-04-19T14:21:21;2.85;;;1.60;;
47413;SDS011;33163;0.000;0.000;2023-04-19T14:23:48;3.38;;;1.23;;
47413;SDS011;33163;0.000;0.000;2023-04-19T14:26:15;8.18;;;1.52;;
47413;SDS011;33163;0.000;0.000;2023-04-19T14:28:43;4.93;;;1.35;;
47413;SDS011;33163;0.000;0.000;2023-04-19T14:31:10;2.28;;;1.52;;
47413;SDS011;33163;0.000;0.000;2023-04-19T14:33:36;3.55;;;1.42;;
47413;SDS011;33163;0.000;0.000;2023-04-19T14:36:03;5.07;;;1.30;;
47413;SDS011;33163;0.000;0.000;2023-04-19T14:38:30;3.97;;;1.50;;
47413;SDS011;33163;0.000;0.000;2023-04-19T14:40:57;3.83;;;1.30;;
47413;SDS011;33163;0.000;0.000;2023-04-19T14:43:24;7.82;;;1.65;;
47413;SDS011;33163;0.000;0.000;2023-04-19T14:45:52;5.03;;;1.55;;
47413;SDS011;33163;0.000;0.000;2023-04-19T14:48:19;2.05;;;1.25;;
47413;SDS011;33163;0.000;0.000;2023-04-19T14:50:46;6.90;;;1.73;;
47413;SDS011;33163;0.000;0.000;2023-04-19T14:53:13;6.07;;;1.77;;
47413;SDS011;33163;0.000;0.000;2023-04-19T14:55:40;2.15;;;1.63;;
47413;SDS011;33163;0.000;0.000;2023-04-19T14:58:07;1.48;;;1.33;;
47413;SDS011;33163;0.000;0.000;2023-04-19T15:00:33;5.18;;;1.40;;
47413;SDS011;33163;0.000;0.000;2023-04-19T15:03:02;3.72;;;1.42;;
47413;SDS011;33163;0.000;0.000;2023-04-19T15:05:29;2.63;;;1.63;;
47413;SDS011;33163;0.000;0.000;2023-04-19T15:07:55;1.30;;;1.20;;